sensor_id;sensor_type;location;lat;lon;timestamp;pressure;altitude;pressure_sealevel;temperature;humidity
34921;BME280;21128;50.016;20.002;2023-04-02T00:08:14;97770.73;;;8.43;100.00
34921;BME280;21128;50.016;20.002;2023-04-02T00:11:02;97774.99;;;8.44;100.00
34921;BME280;21128;50.016;20.002;2023-04-02T00:14:05;97777.61;;;8.44;100.00
34921;BME280;21128;50.016;20.002;2023-04-02T00:17:01;97777.77;;;8.42;100.00
34921;BME280;21128;50.016;20.002;2023-04-02T00:20:01;97773.35;;;8.43;100.00
34921;BME280;21128;50.016;20.002;2023-04-02T00:22:50;97776.95;;;8.42;100.00
34921;BME280;21128;50.016;20.002;2023-04-02T00:25:37;97778.75;;;8.41;100.00
34921;BME280;21128;50.016;20.002;2023-04-02T00:28:29;97775.31;;;8.41;100.00
34921;BME280;21128;50.016;20.002;2023-04-02T00:31:17;97779.57;;;8.42;100.00
34921;BME280;21128;50.016;20.002;2023-04-02T00:34:07;97784.48;;;8.45;100.00
34921;BME280;21128;50.016;20.002;2023-04-02T00:36:56;97777.45;;;8.45;100.00
34921;BME280;21128;50.016;20.002;2023-04-02T00:39:43;97786.12;;;8.46;100.00
34921;BME280;21128;50.016;20.002;2023-04-02T00:42:33;97784.33;;;8.46;100.00
34921;BME280;21128;50.016;20.002;2023-04-02T00:45:28;97785.14;;;8.47;100.00
34921;BME280;21128;50.016;20.002;2023-04-02T00:51:31;97788.13;;;8.52;100.00
34921;BME280;21128;50.016;20.002;2023-04-02T00:54:22;97793.05;;;8.55;100.00
34921;BME280;21128;50.016;20.002;2023-04-02T00:57:14;97794.56;;;8.58;100.00
34921;BME280;21128;50.016;20.002;2023-04-02T01:06:14;97812.73;;;8.59;100.00
34921;BME280;21128;50.016;20.002;2023-04-02T01:09:13;97816.33;;;8.58;100.00
34921;BME280;21128;50.016;20.002;2023-04-02T01:12:44;97811.91;;;8.59;100.00
34921;BME280;21128;50.016;20.002;2023-04-02T01:15:39;97808.26;;;8.52;100.00
34921;BME280;21128;50.016;20.002;2023-04-02T01:24:08;97813.38;;;8.35;100.00
34921;BME280;21128;50.016;20.002;2023-04-02T01:27:01;97823.29;;;8.32;100.00
34921;BME280;21128;50.016;20.002;2023-04-02T01:29:55;97825.24;;;8.30;100.00
34921;BME280;21128;50.016;20.002;2023-04-02T01:32:43;97823.77;;;8.27;100.00
34921;BME280;21128;50.016;20.002;2023-04-02T01:35:32;97826.53;;;8.26;100.00
34921;BME280;21128;50.016;20.002;2023-04-02T01:38:26;97830.13;;;8.25;100.00
34921;BME280;21128;50.016;20.002;2023-04-02T01:41:27;97834.39;;;8.26;100.00
34921;BME280;21128;50.016;20.002;2023-04-02T01:44:32;97828.17;;;8.27;100.00
34921;BME280;21128;50.016;20.002;2023-04-02T01:47:22;97827.05;;;8.29;100.00
34921;BME280;21128;50.016;20.002;2023-04-02T01:50:29;97829.34;;;8.32;100.00
34921;BME280;21128;50.016;20.002;2023-04-02T01:53:17;97825.78;;;8.33;100.00
34921;BME280;21128;50.016;20.002;2023-04-02T01:56:05;97830.20;;;8.33;100.00
34921;BME280;21128;50.016;20.002;2023-04-02T01:58:51;97833.50;;;8.35;100.00
34921;BME280;21128;50.016;20.002;2023-04-02T02:01:42;97834.58;;;8.32;100.00
34921;BME280;21128;50.016;20.002;2023-04-02T02:04:30;97833.50;;;8.35;100.00
34921;BME280;21128;50.016;20.002;2023-04-02T02:07:19;97831.70;;;8.35;100.00
34921;BME280;21128;50.016;20.002;2023-04-02T02:10:09;97840.38;;;8.36;100.00
34921;BME280;21128;50.016;20.002;2023-04-02T02:13:18;97841.48;;;8.33;100.00
34921;BME280;21128;50.016;20.002;2023-04-02T02:16:05;97846.84;;;8.32;100.00
34921;BME280;21128;50.016;20.002;2023-04-02T02:19:00;97853.05;;;8.31;100.00
34921;BME280;21128;50.016;20.002;2023-04-02T02:25:03;97846.84;;;8.32;100.00
34921;BME280;21128;50.016;20.002;2023-04-02T02:31:33;97855.98;;;8.28;100.00
34921;BME280;21128;50.016;20.002;2023-04-02T02:34:19;97855.48;;;8.24;100.00
34921;BME280;21128;50.016;20.002;2023-04-02T02:37:16;97847.91;;;8.21;100.00
34921;BME280;21128;50.016;20.002;2023-04-02T02:40:11;97852.48;;;8.19;100.00
34921;BME280;21128;50.016;20.002;2023-04-02T02:43:01;97852.92;;;8.14;100.00
34921;BME280;21128;50.016;20.002;2023-04-02T02:45:50;97859.44;;;8.10;100.00
34921;BME280;21128;50.016;20.002;2023-04-02T02:48:38;97866.75;;;8.07;100.00
34921;BME280;21128;50.016;20.002;2023-04-02T02:51:36;97862.38;;;8.07;100.00
34921;BME280;21128;50.016;20.002;2023-04-02T02:54:24;97874.59;;;8.07;100.00
34921;BME280;21128;50.016;20.002;2023-04-02T02:57:39;97874.76;;;8.05;100.00
34921;BME280;21128;50.016;20.002;2023-04-02T03:00:26;97888.81;;;8.04;100.00
34921;BME280;21128;50.016;20.002;2023-04-02T03:03:25;97884.25;;;8.06;100.00
34921;BME280;21128;50.016;20.002;2023-04-02T03:06:15;97888.53;;;8.07;100.00
34921;BME280;21128;50.016;20.002;2023-04-02T03:09:10;97881.34;;;8.09;100.00
34921;BME280;21128;50.016;20.002;2023-04-02T03:12:06;97890.02;;;8.10;100.00
34921;BME280;21128;50.016;20.002;2023-04-02T03:15:26;97885.30;;;8.13;100.00
34921;BME280;21128;50.016;20.002;2023-04-02T03:27:34;97891.73;;;8.19;100.00
34921;BME280;21128;50.016;20.002;2023-04-02T03:30:40;97901.38;;;8.18;100.00
34921;BME280;21128;50.016;20.002;2023-04-02T03:33:30;97895.17;;;8.19;100.00
34921;BME280;21128;50.016;20.002;2023-04-02T03:36:32;97897.79;;;8.19;100.00
34921;BME280;21128;50.016;20.002;2023-04-02T03:39:57;97900.72;;;8.16;100.00
34921;BME280;21128;50.016;20.002;2023-04-02T03:42:48;97904.44;;;8.14;100.00
34921;BME280;21128;50.016;20.002;2023-04-02T03:45:38;97907.20;;;8.12;100.00
34921;BME280;21128;50.016;20.002;2023-04-02T03:48:33;97915.72;;;8.14;100.00
34921;BME280;21128;50.016;20.002;2023-04-02T03:54:43;97920.13;;;8.14;100.00
34921;BME280;21128;50.016;20.002;2023-04-02T03:57:54;97922.75;;;8.14;100.00
34921;BME280;21128;50.016;20.002;2023-04-02T04:03:53;97922.75;;;8.14;100.00
34921;BME280;21128;50.016;20.002;2023-04-02T04:06:42;97928.95;;;8.13;100.00
34921;BME280;21128;50.016;20.002;2023-04-02T04:09:35;97927.91;;;8.06;100.00
34921;BME280;21128;50.016;20.002;2023-04-02T04:12:35;97933.59;;;8.01;100.00
34921;BME280;21128;50.016;20.002;2023-04-02T04:15:35;97923.28;;;8.00;100.00
34921;BME280;21128;50.016;20.002;2023-04-02T04:18:53;97936.06;;;8.03;100.00
34921;BME280;21128;50.016;20.002;2023-04-02T04:21:47;97935.91;;;8.04;100.00
34921;BME280;21128;50.016;20.002;2023-04-02T04:24:33;97937.70;;;8.04;100.00
34921;BME280;21128;50.016;20.002;2023-04-02T04:27:41;97943.09;;;8.02;100.00
34921;BME280;21128;50.016;20.002;2023-04-02T04:30:50;97946.95;;;7.98;100.00
34921;BME280;21128;50.016;20.002;2023-04-02T04:33:42;97949.56;;;7.98;100.00
34921;BME280;21128;50.016;20.002;2023-04-02T04:36:35;97954.68;;;8.00;100.00
34921;BME280;21128;50.016;20.002;2023-04-02T04:39:48;97960.03;;;7.98;100.00
34921;BME280;21128;50.016;20.002;2023-04-02T04:42:34;97961.83;;;7.98;100.00
34921;BME280;21128;50.016;20.002;2023-04-02T04:45:49;97965.56;;;7.95;100.00
34921;BME280;21128;50.016;20.002;2023-04-02T04:48:40;97965.56;;;7.95;100.00
34921;BME280;21128;50.016;20.002;2023-04-02T04:51:45;97973.27;;;7.97;100.00
34921;BME280;21128;50.016;20.002;2023-04-02T04:54:36;97967.36;;;7.95;100.00
34921;BME280;21128;50.016;20.002;2023-04-02T04:57:35;97972.08;;;7.91;100.00
34921;BME280;21128;50.016;20.002;2023-04-02T05:00:37;97978.41;;;7.88;100.00
34921;BME280;21128;50.016;20.002;2023-04-02T05:03:36;97987.67;;;7.83;100.00
34921;BME280;21128;50.016;20.002;2023-04-02T05:21:15;98003.48;;;7.81;100.00
34921;BME280;21128;50.016;20.002;2023-04-02T05:27:27;98004.61;;;7.79;100.00
34921;BME280;21128;50.016;20.002;2023-04-02T05:30:37;98005.73;;;7.76;100.00
34921;BME280;21128;50.016;20.002;2023-04-02T05:33:29;98010.41;;;7.73;100.00
34921;BME280;21128;50.016;20.002;2023-04-02T05:36:26;98013.73;;;7.75;100.00
34921;BME280;21128;50.016;20.002;2023-04-02T05:39:23;98017.98;;;7.76;100.00
34921;BME280;21128;50.016;20.002;2023-04-02T05:42:23;98017.43;;;7.72;100.00
34921;BME280;21128;50.016;20.002;2023-04-02T05:45:33;98016.61;;;7.72;100.00
34921;BME280;21128;50.016;20.002;2023-04-02T05:48:26;98020.20;;;7.71;100.00
34921;BME280;21128;50.016;20.002;2023-04-02T05:51:19;98032.45;;;7.70;100.00
34921;BME280;21128;50.016;20.002;2023-04-02T05:54:38;98023.11;;;7.68;100.00
34921;BME280;21128;50.016;20.002;2023-04-02T05:57:26;98026.84;;;7.65;100.00
34921;BME280;21128;50.016;20.002;2023-04-02T06:00:48;98023.27;;;7.66;100.00
34921;BME280;21128;50.016;20.002;2023-04-02T06:04:22;98025.05;;;7.66;100.00
34921;BME280;21128;50.016;20.002;2023-04-02T06:07:09;98025.88;;;7.66;100.00
34921;BME280;21128;50.016;20.002;2023-04-02T06:10:13;98026.70;;;7.67;100.00
34921;BME280;21128;50.016;20.002;2023-04-02T06:13:07;98034.24;;;7.70;100.00
34921;BME280;21128;50.016;20.002;2023-04-02T06:15:59;98031.62;;;7.70;100.00
34921;BME280;21128;50.016;20.002;2023-04-02T06:18:46;98033.00;;;7.74;100.00
34921;BME280;21128;50.016;20.002;2023-04-02T06:21:31;98037.11;;;7.76;100.00
34921;BME280;21128;50.016;20.002;2023-04-02T06:24:21;98039.43;;;7.79;100.00
34921;BME280;21128;50.016;20.002;2023-04-02T06:27:13;98043.13;;;7.86;100.00
34921;BME280;21128;50.016;20.002;2023-04-02T06:30:06;98043.38;;;7.93;100.00
34921;BME280;21128;50.016;20.002;2023-04-02T06:32:58;98055.19;;;7.97;100.00
34921;BME280;21128;50.016;20.002;2023-04-02T06:35:44;98061.23;;;7.98;100.00
34921;BME280;21128;50.016;20.002;2023-04-02T06:38:34;98061.39;;;7.96;100.00
34921;BME280;21128;50.016;20.002;2023-04-02T06:41:22;98070.61;;;8.00;100.00
34921;BME280;21128;50.016;20.002;2023-04-02T06:44:15;98067.29;;;7.98;100.00
34921;BME280;21128;50.016;20.002;2023-04-02T06:53:02;98069.80;;;7.90;100.00
34921;BME280;21128;50.016;20.002;2023-04-02T06:56:35;98081.94;;;7.91;100.00
34921;BME280;21128;50.016;20.002;2023-04-02T06:59:23;98077.38;;;7.93;100.00
34921;BME280;21128;50.016;20.002;2023-04-02T07:02:21;98082.61;;;7.93;100.00
34921;BME280;21128;50.016;20.002;2023-04-02T07:05:09;98079.03;;;7.94;100.00
34921;BME280;21128;50.016;20.002;2023-04-02T07:07:55;98081.12;;;7.90;100.00
34921;BME280;21128;50.016;20.002;2023-04-02T07:10:41;98081.94;;;7.91;100.00
34921;BME280;21128;50.016;20.002;2023-04-02T07:13:40;98083.96;;;7.97;100.00
34921;BME280;21128;50.016;20.002;2023-04-02T07:16:27;98078.31;;;8.02;100.00
34921;BME280;21128;50.016;20.002;2023-04-02T07:19:19;98089.55;;;8.12;100.00
34921;BME280;21128;50.016;20.002;2023-04-02T07:22:05;98092.84;;;8.14;100.00
34921;BME280;21128;50.016;20.002;2023-04-02T07:24:51;98100.84;;;8.12;100.00
34921;BME280;21128;50.016;20.002;2023-04-02T07:27:37;98100.94;;;8.21;100.00
34921;BME280;21128;50.016;20.002;2023-04-02T07:30:22;98105.60;;;8.27;100.00
34921;BME280;21128;50.016;20.002;2023-04-02T07:33:16;98108.22;;;8.27;100.00
34921;BME280;21128;50.016;20.002;2023-04-02T07:36:02;98104.48;;;8.29;100.00
34921;BME280;21128;50.016;20.002;2023-04-02T07:38:49;98112.88;;;8.33;100.00
34921;BME280;21128;50.016;20.002;2023-04-02T07:41:50;98121.67;;;8.32;100.00
34921;BME280;21128;50.016;20.002;2023-04-02T07:44:36;98117.05;;;8.26;100.00
34921;BME280;21128;50.016;20.002;2023-04-02T07:47:22;98117.87;;;8.26;100.00
34921;BME280;21128;50.016;20.002;2023-04-02T07:50:08;98120.34;;;8.28;100.00
34921;BME280;21128;50.016;20.002;2023-04-02T07:52:55;98129.68;;;8.30;100.00
34921;BME280;21128;50.016;20.002;2023-04-02T07:55:40;98130.23;;;8.34;100.00
34921;BME280;21128;50.016;20.002;2023-04-02T07:58:26;98126.37;;;8.38;100.00
34921;BME280;21128;50.016;20.002;2023-04-02T08:01:19;98129.97;;;8.37;100.00
34921;BME280;21128;50.016;20.002;2023-04-02T08:04:08;98140.30;;;8.29;100.00
34921;BME280;21128;50.016;20.002;2023-04-02T08:07:00;98145.98;;;8.24;100.00
34921;BME280;21128;50.016;20.002;2023-04-02T08:09:46;98145.58;;;8.19;100.00
34921;BME280;21128;50.016;20.002;2023-04-02T08:12:31;98152.50;;;8.10;100.00
34921;BME280;21128;50.016;20.002;2023-04-02T08:15:24;98156.35;;;8.06;100.00
34921;BME280;21128;50.016;20.002;2023-04-02T08:18:10;98161.06;;;8.03;100.00
34921;BME280;21128;50.016;20.002;2023-04-02T08:20:56;98156.13;;;8.00;100.00
34921;BME280;21128;50.016;20.002;2023-04-02T08:23:42;98168.38;;;7.99;100.00
34921;BME280;21128;50.016;20.002;2023-04-02T08:26:28;98175.27;;;8.00;100.00
34921;BME280;21128;50.016;20.002;2023-04-02T08:29:14;98177.99;;;7.99;100.00
34921;BME280;21128;50.016;20.002;2023-04-02T08:32:00;98176.23;;;7.99;100.00
34921;BME280;21128;50.016;20.002;2023-04-02T08:34:46;98179.94;;;7.97;100.00
34921;BME280;21128;50.016;20.002;2023-04-02T08:37:32;98185.98;;;7.97;100.00
34921;BME280;21128;50.016;20.002;2023-04-02T08:40:38;98190.95;;;8.00;100.00
34921;BME280;21128;50.016;20.002;2023-04-02T08:46:28;98206.78;;;8.08;100.00
34921;BME280;21128;50.016;20.002;2023-04-02T08:52:38;98230.66;;;7.57;100.00
34921;BME280;21128;50.016;20.002;2023-04-02T08:58:53;98243.35;;;6.52;100.00
34921;BME280;21128;50.016;20.002;2023-04-02T09:02:02;98242.69;;;6.29;100.00
34921;BME280;21128;50.016;20.002;2023-04-02T09:04:51;98260.92;;;5.99;100.00
34921;BME280;21128;50.016;20.002;2023-04-02T09:07:37;98270.80;;;5.84;100.00
34921;BME280;21128;50.016;20.002;2023-04-02T09:10:39;98272.84;;;5.80;100.00
34921;BME280;21128;50.016;20.002;2023-04-02T09:13:44;98276.30;;;5.70;100.00
34921;BME280;21128;50.016;20.002;2023-04-02T09:19:37;98281.19;;;5.63;100.00
34921;BME280;21128;50.016;20.002;2023-04-02T09:22:28;98295.17;;;5.62;100.00
34921;BME280;21128;50.016;20.002;2023-04-02T09:25:20;98291.87;;;5.60;100.00
34921;BME280;21128;50.016;20.002;2023-04-02T09:28:09;98313.20;;;5.54;100.00
34921;BME280;21128;50.016;20.002;2023-04-02T09:31:00;98311.68;;;5.51;100.00
34921;BME280;21128;50.016;20.002;2023-04-02T09:33:50;98308.12;;;5.52;100.00
34921;BME280;21128;50.016;20.002;2023-04-02T09:36:38;98321.15;;;5.52;100.00
34921;BME280;21128;50.016;20.002;2023-04-02T09:39:24;98327.45;;;5.50;100.00
34921;BME280;21128;50.016;20.002;2023-04-02T09:42:34;98326.84;;;5.46;100.00
34921;BME280;21128;50.016;20.002;2023-04-02T09:45:22;98342.61;;;5.45;100.00
34921;BME280;21128;50.016;20.002;2023-04-02T09:48:21;98337.27;;;5.46;100.00
34921;BME280;21128;50.016;20.002;2023-04-02T09:51:17;98349.59;;;5.44;100.00
34921;BME280;21128;50.016;20.002;2023-04-02T09:54:15;98354.23;;;5.41;100.00
34921;BME280;21128;50.016;20.002;2023-04-02T09:57:03;98358.84;;;5.37;100.00
34921;BME280;21128;50.016;20.002;2023-04-02T10:00:23;98368.56;;;5.35;100.00
34921;BME280;21128;50.016;20.002;2023-04-02T10:03:26;98366.55;;;5.27;100.00
34921;BME280;21128;50.016;20.002;2023-04-02T10:06:14;98381.73;;;5.22;100.00
34921;BME280;21128;50.016;20.002;2023-04-02T10:09:27;98383.03;;;5.17;100.00
34921;BME280;21128;50.016;20.002;2023-04-02T10:12:15;98385.89;;;5.14;100.00
34921;BME280;21128;50.016;20.002;2023-04-02T10:15:26;98392.27;;;5.09;100.00
34921;BME280;21128;50.016;20.002;2023-04-02T10:21:32;98405.66;;;5.05;100.00
34921;BME280;21128;50.016;20.002;2023-04-02T10:24:18;98410.86;;;5.05;100.00
34921;BME280;21128;50.016;20.002;2023-04-02T10:30:28;98422.94;;;5.06;100.00
34921;BME280;21128;50.016;20.002;2023-04-02T10:33:20;98428.27;;;5.04;100.00
34921;BME280;21128;50.016;20.002;2023-04-02T10:45:17;98454.77;;;5.09;100.00
34921;BME280;21128;50.016;20.002;2023-04-02T10:48:24;98456.42;;;5.11;100.00
34921;BME280;21128;50.016;20.002;2023-04-02T10:54:16;98472.17;;;5.09;100.00
34921;BME280;21128;50.016;20.002;2023-04-02T11:03:13;98483.73;;;4.94;100.00
34921;BME280;21128;50.016;20.002;2023-04-02T11:06:37;98482.79;;;4.95;100.00
34921;BME280;21128;50.016;20.002;2023-04-02T11:09:17;98496.42;;;4.98;100.00
34921;BME280;21128;50.016;20.002;2023-04-02T11:12:05;98500.92;;;4.96;100.00
34921;BME280;21128;50.016;20.002;2023-04-02T11:15:17;98507.67;;;4.99;100.00
34921;BME280;21128;50.016;20.002;2023-04-02T11:18:03;98501.06;;;5.06;100.00
34921;BME280;21128;50.016;20.002;2023-04-02T11:20:54;98499.16;;;5.08;100.00
34921;BME280;21128;50.016;20.002;2023-04-02T11:24:01;98510.16;;;5.12;100.00
34921;BME280;21128;50.016;20.002;2023-04-02T11:26:47;98511.61;;;5.16;100.00
34921;BME280;21128;50.016;20.002;2023-04-02T11:32:27;98524.13;;;4.99;100.00
34921;BME280;21128;50.016;20.002;2023-04-02T11:41:06;98548.97;;;4.68;100.00
34921;BME280;21128;50.016;20.002;2023-04-02T11:43:59;98542.67;;;4.60;100.00
34921;BME280;21128;50.016;20.002;2023-04-02T11:46:45;98558.08;;;4.63;100.00
34921;BME280;21128;50.016;20.002;2023-04-02T11:49:36;98552.37;;;4.58;100.00
34921;BME280;21128;50.016;20.002;2023-04-02T12:01:58;98555.52;;;4.50;100.00
34921;BME280;21128;50.016;20.002;2023-04-02T12:16:36;98573.19;;;4.58;100.00
34921;BME280;21128;50.016;20.002;2023-04-02T12:19:23;98574.84;;;4.59;100.00
34921;BME280;21128;50.016;20.002;2023-04-02T12:22:27;98579.22;;;4.58;100.00
34921;BME280;21128;50.016;20.002;2023-04-02T12:31:04;98582.48;;;4.73;100.00
34921;BME280;21128;50.016;20.002;2023-04-02T12:33:56;98582.48;;;4.73;100.00
34921;BME280;21128;50.016;20.002;2023-04-02T12:37:00;98585.09;;;4.73;100.00
34921;BME280;21128;50.016;20.002;2023-04-02T12:40:12;98590.89;;;4.76;100.00
34921;BME280;21128;50.016;20.002;2023-04-02T12:43:00;98585.57;;;4.78;100.00
34921;BME280;21128;50.016;20.002;2023-04-02T12:45:50;98592.34;;;4.80;100.00
34921;BME280;21128;50.016;20.002;2023-04-02T12:48:37;98598.97;;;4.85;100.00
34921;BME280;21128;50.016;20.002;2023-04-02T12:51:23;98598.03;;;4.86;100.00
34921;BME280;21128;50.016;20.002;2023-04-02T12:54:14;98598.03;;;4.86;100.00
34921;BME280;21128;50.016;20.002;2023-04-02T13:00:36;98596.33;;;4.73;100.00
34921;BME280;21128;50.016;20.002;2023-04-02T13:03:21;98604.34;;;4.70;100.00
34921;BME280;21128;50.016;20.002;2023-04-02T13:06:21;98618.30;;;4.69;100.00
34921;BME280;21128;50.016;20.002;2023-04-02T13:15:22;98619.41;;;4.78;100.00
34921;BME280;21128;50.016;20.002;2023-04-02T13:21:44;98619.92;;;4.83;100.00
34921;BME280;21128;50.016;20.002;2023-04-02T13:24:25;98632.38;;;4.91;100.00
34921;BME280;21128;50.016;20.002;2023-04-02T13:27:11;98627.89;;;4.93;100.00
34921;BME280;21128;50.016;20.002;2023-04-02T13:30:06;98632.98;;;4.94;100.00
34921;BME280;21128;50.016;20.002;2023-04-02T13:32:53;98638.07;;;4.96;100.00
34921;BME280;21128;50.016;20.002;2023-04-02T13:35:39;98635.58;;;4.94;100.00
34921;BME280;21128;50.016;20.002;2023-04-02T13:38:25;98633.81;;;4.95;100.00
34921;BME280;21128;50.016;20.002;2023-04-02T13:41:27;98640.67;;;4.96;100.00
34921;BME280;21128;50.016;20.002;2023-04-02T13:44:27;98639.84;;;4.95;100.00
34921;BME280;21128;50.016;20.002;2023-04-02T13:47:14;98639.25;;;4.92;100.00
34921;BME280;21128;50.016;20.002;2023-04-02T13:50:00;98646.34;;;4.90;100.00
34921;BME280;21128;50.016;20.002;2023-04-02T13:52:47;98645.52;;;4.89;100.00
34921;BME280;21128;50.016;20.002;2023-04-02T13:55:37;98645.52;;;4.89;100.00
34921;BME280;21128;50.016;20.002;2023-04-02T13:58:24;98651.55;;;4.90;100.00
34921;BME280;21128;50.016;20.002;2023-04-02T14:01:10;98652.27;;;4.92;100.00
34921;BME280;21128;50.016;20.002;2023-04-02T14:03:56;98657.36;;;4.93;100.00
34921;BME280;21128;50.016;20.002;2023-04-02T14:06:49;98652.16;;;4.93;100.00
34921;BME280;21128;50.016;20.002;2023-04-02T14:22:59;98673.13;;;4.79;100.00
34921;BME280;21128;50.016;20.002;2023-04-02T14:25:53;98679.20;;;4.79;100.00
34921;BME280;21128;50.016;20.002;2023-04-02T14:35:02;98684.60;;;4.76;100.00
34921;BME280;21128;50.016;20.002;2023-04-02T14:40:54;98710.14;;;4.71;100.00
34921;BME280;21128;50.016;20.002;2023-04-02T14:43:51;98704.42;;;4.66;100.00
34921;BME280;21128;50.016;20.002;2023-04-02T14:46:38;98707.45;;;4.60;100.00
34921;BME280;21128;50.016;20.002;2023-04-02T14:49:28;98700.92;;;4.55;100.00
34921;BME280;21128;50.016;20.002;2023-04-02T14:52:19;98711.52;;;4.51;100.00
34921;BME280;21128;50.016;20.002;2023-04-02T14:55:31;98720.05;;;4.53;100.00
34921;BME280;21128;50.016;20.002;2023-04-02T14:58:25;98718.39;;;4.52;100.00
34921;BME280;21128;50.016;20.002;2023-04-02T15:01:17;98726.42;;;4.49;100.00
34921;BME280;21128;50.016;20.002;2023-04-02T15:04:07;98732.56;;;4.48;100.00
34921;BME280;21128;50.016;20.002;2023-04-02T15:07:02;98735.28;;;4.47;100.00
34921;BME280;21128;50.016;20.002;2023-04-02T15:13:05;98726.12;;;4.41;100.00
34921;BME280;21128;50.016;20.002;2023-04-02T15:18:55;98737.47;;;4.40;100.00
34921;BME280;21128;50.016;20.002;2023-04-02T15:28:27;98760.88;;;4.28;100.00
34921;BME280;21128;50.016;20.002;2023-04-02T15:31:17;98763.48;;;4.15;100.00
34921;BME280;21128;50.016;20.002;2023-04-02T15:34:24;98768.16;;;4.10;100.00
34921;BME280;21128;50.016;20.002;2023-04-02T15:40:18;98773.86;;;4.02;100.00
34921;BME280;21128;50.016;20.002;2023-04-02T15:55:21;98793.00;;;3.88;100.00
34921;BME280;21128;50.016;20.002;2023-04-02T15:58:48;98809.82;;;3.83;100.00
34921;BME280;21128;50.016;20.002;2023-04-02T16:07:43;98812.58;;;3.67;100.00
34921;BME280;21128;50.016;20.002;2023-04-02T16:10:35;98815.07;;;3.68;100.00
34921;BME280;21128;50.016;20.002;2023-04-02T16:13:35;98823.70;;;3.69;100.00
34921;BME280;21128;50.016;20.002;2023-04-02T16:16:35;98827.13;;;3.70;100.00
34921;BME280;21128;50.016;20.002;2023-04-02T16:20:04;98827.89;;;3.72;100.00
34921;BME280;21128;50.016;20.002;2023-04-02T16:23:21;98836.52;;;3.72;100.00
34921;BME280;21128;50.016;20.002;2023-04-02T16:32:19;98839.29;;;3.69;100.00
34921;BME280;21128;50.016;20.002;2023-04-02T16:38:44;98856.23;;;3.62;100.00
34921;BME280;21128;50.016;20.002;2023-04-02T16:51:07;98870.06;;;3.62;100.00
34921;BME280;21128;50.016;20.002;2023-04-02T16:54:12;98874.32;;;3.63;100.00
34921;BME280;21128;50.016;20.002;2023-04-02T17:03:33;98886.48;;;3.63;100.00
34921;BME280;21128;50.016;20.002;2023-04-02T17:09:28;98898.81;;;3.59;100.00
34921;BME280;21128;50.016;20.002;2023-04-02T17:12:38;98904.11;;;3.58;100.00
34921;BME280;21128;50.016;20.002;2023-04-02T17:15:48;98907.64;;;3.57;100.00
34921;BME280;21128;50.016;20.002;2023-04-02T17:18:37;98914.61;;;3.56;100.00
34921;BME280;21128;50.016;20.002;2023-04-02T17:21:28;98917.20;;;3.56;100.00
34921;BME280;21128;50.016;20.002;2023-04-02T17:24:20;98920.73;;;3.55;100.00
34921;BME280;21128;50.016;20.002;2023-04-02T17:30:10;98929.47;;;3.54;100.00
34921;BME280;21128;50.016;20.002;2023-04-02T17:32:57;98925.20;;;3.53;100.00
34921;BME280;21128;50.016;20.002;2023-04-02T17:42:23;98940.33;;;3.47;100.00
34921;BME280;21128;50.016;20.002;2023-04-02T17:48:25;98945.06;;;3.40;100.00
34921;BME280;21128;50.016;20.002;2023-04-02T17:51:38;98944.33;;;3.38;100.00
34921;BME280;21128;50.016;20.002;2023-04-02T17:54:34;98949.70;;;3.35;100.00
34921;BME280;21128;50.016;20.002;2023-04-02T18:00:48;98960.28;;;3.32;100.00
34921;BME280;21128;50.016;20.002;2023-04-02T18:03:48;98964.84;;;3.28;100.00
34921;BME280;21128;50.016;20.002;2023-04-02T18:09:43;98972.63;;;3.28;100.00
34921;BME280;21128;50.016;20.002;2023-04-02T18:16:12;98973.83;;;3.23;100.00
34921;BME280;21128;50.016;20.002;2023-04-02T18:19:17;98981.72;;;3.21;100.00
34921;BME280;21128;50.016;20.002;2023-04-02T18:31:21;98990.32;;;3.07;100.00
34921;BME280;21128;50.016;20.002;2023-04-02T18:34:25;99005.16;;;3.05;100.00
34921;BME280;21128;50.016;20.002;2023-04-02T18:40:29;99003.59;;;3.03;100.00
34921;BME280;21128;50.016;20.002;2023-04-02T18:49:42;99010.61;;;3.01;100.00
34921;BME280;21128;50.016;20.002;2023-04-02T18:52:30;99011.55;;;3.00;100.00
34921;BME280;21128;50.016;20.002;2023-04-02T18:55:30;99014.14;;;3.00;100.00
34921;BME280;21128;50.016;20.002;2023-04-02T18:58:24;99012.38;;;3.00;100.00
34921;BME280;21128;50.016;20.002;2023-04-02T19:01:16;99015.06;;;2.99;100.00
34921;BME280;21128;50.016;20.002;2023-04-02T19:04:16;99023.78;;;2.98;100.00
34921;BME280;21128;50.016;20.002;2023-04-02T19:07:13;99016.00;;;2.98;100.00
34921;BME280;21128;50.016;20.002;2023-04-02T19:10:23;99015.06;;;2.99;100.00
34921;BME280;21128;50.016;20.002;2023-04-02T19:13:19;99016.73;;;3.00;100.00
34921;BME280;21128;50.016;20.002;2023-04-02T19:25:45;99029.07;;;2.96;100.00
34921;BME280;21128;50.016;20.002;2023-04-02T19:31:57;99030.89;;;2.94;100.00
34921;BME280;21128;50.016;20.002;2023-04-02T19:34:55;99031.83;;;2.93;100.00
34921;BME280;21128;50.016;20.002;2023-04-02T19:37:51;99032.59;;;2.95;100.00
34921;BME280;21128;50.016;20.002;2023-04-02T19:40:57;99038.53;;;2.97;100.00
34921;BME280;21128;50.016;20.002;2023-04-02T19:43:46;99036.86;;;2.96;100.00
34921;BME280;21128;50.016;20.002;2023-04-02T19:46:31;99042.88;;;2.97;100.00
34921;BME280;21128;50.016;20.002;2023-04-02T19:49:23;99051.41;;;2.99;100.00
34921;BME280;21128;50.016;20.002;2023-04-02T19:52:10;99043.53;;;3.00;100.00
34921;BME280;21128;50.016;20.002;2023-04-02T19:54:56;99049.64;;;2.99;100.00
34921;BME280;21128;50.016;20.002;2023-04-02T19:57:42;99054.10;;;2.97;100.00
34921;BME280;21128;50.016;20.002;2023-04-02T20:00:28;99046.41;;;2.96;100.00
34921;BME280;21128;50.016;20.002;2023-04-02T20:03:16;99047.40;;;2.93;100.00
34921;BME280;21128;50.016;20.002;2023-04-02T20:06:02;99048.23;;;2.94;100.00